Time;durP1;ratioP1;P1;durP2;ratioP2;P2;SDS_P1;SDS_P2;PMS_P1;PMS_P2;Temp;Humidity;BMP_temperature;BMP_pressure;BME280_temperature;BME280_humidity;BME280_pressure;Samples;Min_cycle;Max_cycle;Signal;HPM_P1;HPM_P2
2021/05/04 00:02:17;;;;;;;;;;;;;;;;;;5071306;28;19915;-64
2021/05/04 00:04:42;;;;;;;;;;;;;;;;;;5071536;28;19923;-64
2021/05/04 00:07:07;;;;;;;;;;;;;;;;;;5070710;28;19943;-63
2021/05/04 00:09:32;;;;;;;;;;;;;;;;;;5061881;28;20490;-64
2021/05/04 00:11:57;;;;;;;;;;;;;;;;;;5067085;28;19949;-63
2021/05/04 00:14:22;;;;;;;;;;;;;;;;;;5071373;28;19919;-64
2021/05/04 00:16:47;;;;;;;;;;;;;;;;;;5071164;28;19908;-64
2021/05/04 00:19:12;;;;;;;;;;;;;;;;;;5070847;28;20190;-64
2021/05/04 00:21:38;;;;;;;;;;;;;;;;;;5071041;28;19912;-64
2021/05/04 00:24:03;;;;;;;;;;;;;;;;;;5071357;28;19943;-63
2021/05/04 00:26:28;;;;;;;;;;;;;;;;;;5071136;28;19915;-63
2021/05/04 00:28:53;;;;;;;;;;;;;;;;;;5069028;28;19913;-63
2021/05/04 00:31:18;;;;;;;;;;;;;;;;;;5068828;28;19908;-63
2021/05/04 00:33:43;;;;;;;;;;;;;;;;;;5070460;28;19916;-63
2021/05/04 00:36:08;;;;;;;;;;;;;;;;;;5070713;28;19908;-64
2021/05/04 00:38:33;;;;;;;;;;;;;;;;;;5070556;28;19933;-63
2021/05/04 00:40:58;;;;;;;;;;;;;;;;;;5071628;28;19911;-63
2021/05/04 00:43:24;;;;;;;;;;;;;;;;;;5070377;28;20353;-63
2021/05/04 00:45:49;;;;;;;;;;;;;;;;;;5066355;28;19920;-64
2021/05/04 00:48:14;;;;;;;;;;;;;;;;;;5066093;28;19908;-62
2021/05/04 00:50:39;;;;;;;;;;;;;;;;;;5057566;28;20292;-64
2021/05/04 00:53:04;;;;;;;;;;;;;;;;;;5068418;28;19908;-63
2021/05/04 00:55:29;;;;;;;;;;;;;;;;;;5070583;28;19915;-63
2021/05/04 00:57:55;;;;;;;;;;;;;;;;;;5069827;28;20384;-63
2021/05/04 01:00:20;;;;;;;;;;;;;;;;;;5069744;28;19915;-64
2021/05/04 01:02:45;;;;;;;;;;;;;;;;;;5070475;28;19908;-63
2021/05/04 01:05:10;;;;;;;;;;;;;;;;;;5070899;28;20387;-64
2021/05/04 01:07:36;;;;;;;;;;;;;;;;;;5069876;28;19959;-63
2021/05/04 01:10:01;;;;;;;;;;;;;;;;;;5068819;28;19908;-63
2021/05/04 01:12:26;;;;;;;;;;;;;;;;;;5068293;28;19913;-63
2021/05/04 01:14:51;;;;;;;;;;;;;;;;;;5070926;28;19904;-63
2021/05/04 01:17:16;;;;;;;;;;;;;;;;;;5070017;28;19908;-63
2021/05/04 01:19:41;;;;;;;;;;;;;;;;;;5069503;28;19916;-63
2021/05/04 01:22:06;;;;;;;;;;;;;;;;;;5070553;28;19915;-64
2021/05/04 01:24:32;;;;;;;;;;;;;;;;;;5070464;28;19916;-63
2021/05/04 01:26:58;;;;;;;;;;;;;;;;;;5070654;28;20316;-63
2021/05/04 01:29:23;;;;;;;;;;;;;;;;;;5068288;28;19908;-63
2021/05/04 01:31:48;;;;;;;;;;;;;;;;;;5068744;28;19909;-64
2021/05/04 01:34:14;;;;;;;;;;;;;;;;;;5070040;28;19908;-63
2021/05/04 01:36:39;;;;;;;;;;;;;;;;;;5072884;28;19911;-64
2021/05/04 01:39:04;;;;;;;;;;;;;;;;;;5070369;28;20293;-62
2021/05/04 01:41:29;;;;;;;;;;;;;;;;;;5071301;28;19999;-63
2021/05/04 01:43:54;;;;;;;;;;;;;;;;;;5074974;28;19912;-63
2021/05/04 01:46:19;;;;;;;;;;;;;;;;;;5077073;28;19961;-64
2021/05/04 01:48:44;;;;;;;;;;;;;;;;;;5072254;28;19908;-64
2021/05/04 01:51:09;;;;;;;;;;;;;;;;;;5077273;28;19999;-63
2021/05/04 01:53:34;;;;;;;;;;;;;;;;;;5077494;28;20287;-63
2021/05/04 01:55:59;;;;;;;;;;;;;;;;;;5076018;28;19908;-63
2021/05/04 01:58:25;;;;;;;;;;;;;;;;;;5074792;28;19909;-63
2021/05/04 02:00:50;;;;;;;;;;;;;;;;;;5074129;28;19951;-63
2021/05/04 02:03:15;;;;;;;;;;;;;;;;;;5081556;23;19999;-65
2021/05/04 02:05:40;;;;;;;;;;;;;;;;;;5069145;28;19913;-63
2021/05/04 02:08:05;;;;;;;;;;;;;;;;;;5062678;28;20339;-63
2021/05/04 02:10:30;;;;;;;;;;;;;;;;;;5063390;28;19912;-63
2021/05/04 02:12:55;;;;;;;;;;;;;;;;;;5073653;28;19904;-63
2021/05/04 02:15:20;;;;;;;;;;;;;;;;;;5055466;28;19912;-63
2021/05/04 02:17:45;;;;;;;;;;;;;;;;;;5050021;28;20293;-63
2021/05/04 02:20:10;;;;;;;;;;;;;;;;;;5054055;28;19958;-63
2021/05/04 02:22:35;;;;;;;;;;;;;;;;;;5053165;28;19908;-63
2021/05/04 02:25:01;;;;;;;;;;;;;;;;;;5053686;28;19928;-63
2021/05/04 02:27:26;;;;;;;;;;;;;;;;;;5052761;28;19915;-63
2021/05/04 02:29:51;;;;;;;;;;;;;;;;;;5052701;28;19919;-64
2021/05/04 02:32:16;;;;;;;;;;;;;;;;;;5052841;28;19911;-63
2021/05/04 02:34:41;;;;;;;;;;;;;;;;;;5048319;28;20356;-63
2021/05/04 02:37:06;;;;;;;;;;;;;;;;;;5053344;28;19950;-63
2021/05/04 02:39:31;;;;;;;;;;;;;;;;;;5053005;28;19909;-63
2021/05/04 02:41:56;;;;;;;;;;;;;;;;;;5052670;28;19931;-63
2021/05/04 02:44:22;;;;;;;;;;;;;;;;;;5052840;28;19919;-64
2021/05/04 02:46:47;;;;;;;;;;;;;;;;;;5052858;28;20381;-64
2021/05/04 02:49:12;;;;;;;;;;;;;;;;;;5052502;28;19973;-64
2021/05/04 02:51:37;;;;;;;;;;;;;;;;;;5048754;28;19913;-64
2021/05/04 02:54:02;;;;;;;;;;;;;;;;;;5052889;28;20272;-63
2021/05/04 02:56:27;;;;;;;;;;;;;;;;;;5052308;28;19913;-63
2021/05/04 02:58:52;;;;;;;;;;;;;;;;;;5053042;28;19912;-63
2021/05/04 03:01:17;;;;;;;;;;;;;;;;;;5053085;28;19955;-63
2021/05/04 03:03:42;;;;;;;;;;;;;;;;;;5052714;28;19921;-63
2021/05/04 03:06:07;;;;;;;;;;;;;;;;;;5053206;28;19905;-63
2021/05/04 03:08:33;;;;;;;;;;;;;;;;;;5040583;28;19915;-63
2021/05/04 03:10:58;;;;;;;;;;;;;;;;;;5052700;28;19908;-64
2021/05/04 03:13:23;;;;;;;;;;;;;;;;;;5052635;28;19994;-64
2021/05/04 03:15:48;;;;;;;;;;;;;;;;;;5052867;28;20334;-63
2021/05/04 03:18:13;;;;;;;;;;;;;;;;;;5043755;28;19933;-63
2021/05/04 03:20:39;;;;;;;;;;;;;;;;;;5052557;28;19912;-64
2021/05/04 03:23:05;;;;;;;;;;;;;;;;;;5052614;28;20012;-63
2021/05/04 03:25:30;;;;;;;;;;;;;;;;;;5039673;28;20007;-64
2021/05/04 03:27:57;;;;;;;;;;;;;;;;;;5042703;28;20003;-63
2021/05/04 03:30:23;;;;;;;;;;;;;;;;;;5052545;28;19905;-63
2021/05/04 03:32:48;;;;;;;;;;;;;;;;;;5052144;28;19955;-64
2021/05/04 03:35:13;;;;;;;;;;;;;;;;;;5052298;28;19908;-64
2021/05/04 03:37:38;;;;;;;;;;;;;;;;;;5052119;28;20388;-63
2021/05/04 03:40:03;;;;;;;;;;;;;;;;;;5050106;28;19916;-64
2021/05/04 03:42:28;;;;;;;;;;;;;;;;;;5049818;28;19917;-63
2021/05/04 03:44:53;;;;;;;;;;;;;;;;;;5051562;28;19955;-64
2021/05/04 03:47:18;;;;;;;;;;;;;;;;;;5049846;28;19962;-63
2021/05/04 03:49:43;;;;;;;;;;;;;;;;;;5049144;28;20051;-64
2021/05/04 03:52:08;;;;;;;;;;;;;;;;;;5046894;28;19909;-63
2021/05/04 03:54:34;;;;;;;;;;;;;;;;;;5048900;28;20276;-64
2021/05/04 03:56:59;;;;;;;;;;;;;;;;;;5051336;28;19916;-63
2021/05/04 03:59:24;;;;;;;;;;;;;;;;;;5045323;28;19912;-63
2021/05/04 04:01:49;;;;;;;;;;;;;;;;;;5051624;28;19904;-63
2021/05/04 04:04:14;;;;;;;;;;;;;;;;;;5051147;28;19913;-64
2021/05/04 04:06:39;;;;;;;;;;;;;;;;;;5051364;28;20343;-64
2021/05/04 04:09:04;;;;;;;;;;;;;;;;;;5050862;28;19991;-63
2021/05/04 04:11:29;;;;;;;;;;;;;;;;;;5051475;28;19911;-63
2021/05/04 04:13:54;;;;;;;;;;;;;;;;;;5051062;28;20273;-63
2021/05/04 04:16:20;;;;;;;;;;;;;;;;;;5049635;28;19905;-63
2021/05/04 04:18:45;;;;;;;;;;;;;;;;;;5051153;28;19947;-62
2021/05/04 04:21:10;;;;;;;;;;;;;;;;;;5051233;28;19908;-63
2021/05/04 04:23:35;;;;;;;;;;;;;;;;;;5050106;28;19970;-63
2021/05/04 04:26:00;;;;;;;;;;;;;;;;;;5051534;28;20327;-63
2021/05/04 04:28:25;;;;;;;;;;;;;;;;;;5050691;28;19909;-64
2021/05/04 04:30:50;;;;;;;;;;;;;;;;;;5051452;28;20403;-63
2021/05/04 04:33:15;;;;;;;;;;;;;;;;;;5048768;28;19909;-64
2021/05/04 04:35:40;;;;;;;;;;;;;;;;;;5050943;28;19909;-63
2021/05/04 04:38:06;;;;;;;;;;;;;;;;;;5032073;28;20402;-64
2021/05/04 04:40:31;;;;;;;;;;;;;;;;;;5050916;28;19909;-63
2021/05/04 04:42:56;;;;;;;;;;;;;;;;;;5050674;28;19924;-63
2021/05/04 04:45:21;;;;;;;;;;;;;;;;;;5050654;28;19919;-63
2021/05/04 04:47:46;;;;;;;;;;;;;;;;;;5050226;28;20192;-63
2021/05/04 04:50:11;;;;;;;;;;;;;;;;;;5048825;28;20537;-63
2021/05/04 04:52:36;;;;;;;;;;;;;;;;;;5050128;28;19928;-63
2021/05/04 04:55:01;;;;;;;;;;;;;;;;;;5050376;28;19916;-63
2021/05/04 04:57:26;;;;;;;;;;;;;;;;;;5050214;28;19908;-63
2021/05/04 04:59:52;;;;;;;;;;;;;;;;;;5050174;28;19911;-63
2021/05/04 05:02:17;;;;;;;;;;;;;;;;;;5054557;28;20018;-63
2021/05/04 05:04:42;;;;;;;;;;;;;;;;;;5047683;28;19939;-63
2021/05/04 05:07:08;;;;;;;;;;;;;;;;;;5038345;28;19978;-63
2021/05/04 05:09:35;;;;;;;;;;;;;;;;;;5043400;28;19913;-63
2021/05/04 05:12:00;;;;;;;;;;;;;;;;;;5047576;28;19916;-64
2021/05/04 05:14:25;;;;;;;;;;;;;;;;;;5047944;28;19995;-63
2021/05/04 05:16:51;;;;;;;;;;;;;;;;;;5047780;28;19942;-63
2021/05/04 05:19:16;;;;;;;;;;;;;;;;;;5048080;28;19913;-62
2021/05/04 05:21:41;;;;;;;;;;;;;;;;;;5047839;28;19916;-63
2021/05/04 05:24:06;;;;;;;;;;;;;;;;;;5045380;28;19967;-64
2021/05/04 05:26:31;;;;;;;;;;;;;;;;;;5048250;28;20051;-63
2021/05/04 05:28:56;;;;;;;;;;;;;;;;;;5047373;28;19912;-63
2021/05/04 05:31:21;;;;;;;;;;;;;;;;;;5047252;28;19913;-63
2021/05/04 05:33:47;;;;;;;;;;;;;;;;;;5048414;28;20388;-64
2021/05/04 05:36:12;;;;;;;;;;;;;;;;;;5048266;28;19924;-63
2021/05/04 05:38:37;;;;;;;;;;;;;;;;;;5048496;28;19923;-63
2021/05/04 05:41:02;;;;;;;;;;;;;;;;;;5048606;28;19909;-62
2021/05/04 05:43:27;;;;;;;;;;;;;;;;;;5049053;28;19909;-63
2021/05/04 05:45:52;;;;;;;;;;;;;;;;;;5048513;28;19982;-63
2021/05/04 05:48:17;;;;;;;;;;;;;;;;;;5048502;28;20391;-63
2021/05/04 05:50:42;;;;;;;;;;;;;;;;;;5047671;28;19928;-62
2021/05/04 05:53:07;;;;;;;;;;;;;;;;;;5048660;28;19904;-63
2021/05/04 05:55:33;;;;;;;;;;;;;;;;;;5048601;28;20169;-61
2021/05/04 05:57:58;;;;;;;;;;;;;;;;;;5048375;28;20093;-64
2021/05/04 06:00:23;;;;;;;;;;;;;;;;;;5048652;28;19979;-64
2021/05/04 06:02:48;;;;;;;;;;;;;;;;;;5048723;28;20381;-63
2021/05/04 06:05:13;;;;;;;;;;;;;;;;;;5049500;28;19913;-64
2021/05/04 06:07:38;;;;;;;;;;;;;;;;;;5049442;28;19991;-62
2021/05/04 06:10:03;;;;;;;;;;;;;;;;;;5046621;28;20360;-64
2021/05/04 06:12:28;;;;;;;;;;;;;;;;;;5046505;28;19909;-62
2021/05/04 06:14:53;;;;;;;;;;;;;;;;;;5049678;28;19909;-64
2021/05/04 06:17:18;;;;;;;;;;;;;;;;;;5050044;28;19916;-62
2021/05/04 06:19:44;;;;;;;;;;;;;;;;;;5050101;28;20309;-64
2021/05/04 06:22:09;;;;;;;;;;;;;;;;;;5049577;28;19908;-63
2021/05/04 06:24:34;;;;;;;;;;;;;;;;;;5049400;28;19913;-64
2021/05/04 06:26:59;;;;;;;;;;;;;;;;;;5046407;28;19917;-62
2021/05/04 06:29:24;;;;;;;;;;;;;;;;;;5050340;28;19966;-64
2021/05/04 06:31:56;;;;;;;;;;;;;;;;;;5052261;28;19916;-61
2021/05/04 06:34:21;;;;;;;;;;;;;;;;;;5052918;28;19920;-63
2021/05/04 06:36:46;;;;;;;;;;;;;;;;;;5052912;28;19905;-64
2021/05/04 06:39:11;;;;;;;;;;;;;;;;;;5052718;28;19912;-63
2021/05/04 06:41:36;;;;;;;;;;;;;;;;;;5052747;28;19938;-64
2021/05/04 06:44:02;;;;;;;;;;;;;;;;;;5053508;28;20319;-63
2021/05/04 06:46:29;;;;;;;;;;;;;;;;;;5052454;28;20011;-63
2021/05/04 06:48:54;;;;;;;;;;;;;;;;;;5052858;28;19913;-63
2021/05/04 06:51:19;;;;;;;;;;;;;;;;;;5052718;28;20420;-63
2021/05/04 06:53:45;;;;;;;;;;;;;;;;;;5053540;28;19905;-65
2021/05/04 06:56:10;;;;;;;;;;;;;;;;;;5053003;28;20440;-63
2021/05/04 06:58:35;;;;;;;;;;;;;;;;;;5053109;28;19904;-63
2021/05/04 07:01:00;;;;;;;;;;;;;;;;;;5062821;28;19908;-63
2021/05/04 07:03:25;;;;;;;;;;;;;;;;;;5073012;28;19915;-64
2021/05/04 07:05:50;;;;;;;;;;;;;;;;;;5057011;28;19912;-62
2021/05/04 07:08:15;;;;;;;;;;;;;;;;;;5053117;28;20289;-65
2021/05/04 07:10:40;;;;;;;;;;;;;;;;;;5053040;28;19931;-63
2021/05/04 07:13:05;;;;;;;;;;;;;;;;;;5045252;28;19909;-65
2021/05/04 07:15:31;;;;;;;;;;;;;;;;;;5052792;28;19920;-63
2021/05/04 07:17:56;;;;;;;;;;;;;;;;;;5052933;28;20566;-65
2021/05/04 07:20:22;;;;;;;;;;;;;;;;;;5052781;28;19905;-63
2021/05/04 07:22:48;;;;;;;;;;;;;;;;;;5052831;28;19904;-63
2021/05/04 07:25:13;;;;;;;;;;;;;;;;;;5052388;28;20375;-62
2021/05/04 07:27:38;;;;;;;;;;;;;;;;;;5052327;28;20285;-65
2021/05/04 07:30:04;;;;;;;;;;;;;;;;;;5052603;28;20284;-63
2021/05/04 07:32:29;;;;;;;;;;;;;;;;;;5052852;28;19909;-62
2021/05/04 07:34:54;;;;;;;;;;;;;;;;;;5052463;28;19909;-63
2021/05/04 07:37:19;;;;;;;;;;;;;;;;;;5052491;28;19909;-63
2021/05/04 07:39:44;;;;;;;;;;;;;;;;;;5051194;28;19931;-63
2021/05/04 07:42:09;;;;;;;;;;;;;;;;;;5052251;28;20127;-63
2021/05/04 07:44:34;;;;;;;;;;;;;;;;;;5052271;28;19913;-62
2021/05/04 07:47:00;;;;;;;;;;;;;;;;;;5053001;28;19908;-63
2021/05/04 07:49:35;;;;;;;;;;;;;;;;;;5052592;28;19916;-63
2021/05/04 07:52:00;;;;;;;;;;;;;;;;;;5050656;28;19962;-63
2021/05/04 07:54:25;;;;;;;;;;;;;;;;;;5051769;28;20050;-64
2021/05/04 07:56:50;;;;;;;;;;;;;;;;;;5054179;28;20736;-63
2021/05/04 07:59:15;;;;;;;;;;;;;;;;;;5052007;28;19912;-64
2021/05/04 08:01:40;;;;;;;;;;;;;;;;;;5051939;28;19908;-63
2021/05/04 08:04:05;;;;;;;;;;;;;;;;;;5053959;28;19982;-63
2021/05/04 08:06:30;;;;;;;;;;;;;;;;;;5051127;28;20007;-63
2021/05/04 08:08:55;;;;;;;;;;;;;;;;;;5051098;28;19909;-63
2021/05/04 08:11:21;;;;;;;;;;;;;;;;;;5062542;28;19908;-63
2021/05/04 08:13:46;;;;;;;;;;;;;;;;;;5051529;28;19909;-63
2021/05/04 08:16:12;;;;;;;;;;;;;;;;;;5051097;28;19913;-63
2021/05/04 08:18:37;;;;;;;;;;;;;;;;;;5050856;28;20281;-63
2021/05/04 08:21:03;;;;;;;;;;;;;;;;;;5051520;28;19912;-63
2021/05/04 08:23:28;;;;;;;;;;;;;;;;;;5050958;28;19919;-64
2021/05/04 08:25:53;;;;;;;;;;;;;;;;;;5050909;28;19910;-63
2021/05/04 08:28:18;;;;;;;;;;;;;;;;;;5063888;28;19909;-63
2021/05/04 08:30:43;;;;;;;;;;;;;;;;;;5060830;28;19909;-63
2021/05/04 08:33:08;;;;;;;;;;;;;;;;;;5050223;28;19919;-64
2021/05/04 08:35:33;;;;;;;;;;;;;;;;;;5050276;28;19908;-63
2021/05/04 08:37:58;;;;;;;;;;;;;;;;;;5050851;28;20399;-63
2021/05/04 08:40:23;;;;;;;;;;;;;;;;;;5050712;28;20005;-63
2021/05/04 08:42:48;;;;;;;;;;;;;;;;;;5050156;28;19912;-63
2021/05/04 08:45:14;;;;;;;;;;;;;;;;;;5052700;28;20284;-64
2021/05/04 08:47:39;;;;;;;;;;;;;;;;;;5050579;28;19909;-63
2021/05/04 08:50:04;;;;;;;;;;;;;;;;;;5050707;28;20360;-64
2021/05/04 08:52:29;;;;;;;;;;;;;;;;;;5051047;28;19909;-64
2021/05/04 08:54:54;;;;;;;;;;;;;;;;;;5051082;28;19909;-63
2021/05/04 08:57:19;;;;;;;;;;;;;;;;;;5051042;28;20284;-62
2021/05/04 08:59:44;;;;;;;;;;;;;;;;;;5053408;28;19914;-63
2021/05/04 09:02:10;;;;;;;;;;;;;;;;;;5056288;28;19919;-64
2021/05/04 09:04:51;;;;;;;;;;;;;;;;;;5050180;28;20365;-63
2021/05/04 09:07:18;;;;;;;;;;;;;;;;;;5050950;28;19913;-63
2021/05/04 09:09:43;;;;;;;;;;;;;;;;;;5050421;28;19909;-63
2021/05/04 09:12:17;;;;;;;;;;;;;;;;;;5050693;28;19978;-64
2021/05/04 09:14:57;;;;;;;;;;;;;;;;;;5050592;28;19912;-64
2021/05/04 09:17:47;;;;;;;;;;;;;;;;;;5063802;28;20175;-63
2021/05/04 09:22:42;;;;;;;;;;;;;;;;;;5050345;28;19909;-63
2021/05/04 09:25:08;;;;;;;;;;;;;;;;;;5050066;28;19912;-63
2021/05/04 09:27:33;;;;;;;;;;;;;;;;;;5047716;28;19915;-63
2021/05/04 09:29:59;;;;;;;;;;;;;;;;;;5050244;28;19908;-63
2021/05/04 09:32:25;;;;;;;;;;;;;;;;;;5050723;28;19954;-63
2021/05/04 09:34:50;;;;;;;;;;;;;;;;;;5050097;28;19948;-63
2021/05/04 09:37:15;;;;;;;;;;;;;;;;;;5050241;28;20361;-64
2021/05/04 09:39:41;;;;;;;;;;;;;;;;;;5049211;28;19913;-63
2021/05/04 09:42:06;;;;;;;;;;;;;;;;;;5050261;28;19909;-64
2021/05/04 09:44:31;;;;;;;;;;;;;;;;;;5050083;28;19959;-63
2021/05/04 09:46:56;;;;;;;;;;;;;;;;;;5050110;28;20387;-64
2021/05/04 09:49:21;;;;;;;;;;;;;;;;;;5048306;28;19977;-63
2021/05/04 09:51:48;;;;;;;;;;;;;;;;;;5043176;28;19909;-63
2021/05/04 09:54:14;;;;;;;;;;;;;;;;;;5047475;28;19916;-63
2021/05/04 09:56:40;;;;;;;;;;;;;;;;;;5038002;28;19909;-64
2021/05/04 09:59:05;;;;;;;;;;;;;;;;;;5065173;28;19919;-63
2021/05/04 10:01:30;;;;;;;;;;;;;;;;;;5051479;28;19908;-63
2021/05/04 10:03:56;;;;;;;;;;;;;;;;;;5051563;28;19913;-63
2021/05/04 10:06:21;;;;;;;;;;;;;;;;;;5055058;28;19913;-63
2021/05/04 10:08:46;;;;;;;;;;;;;;;;;;5054082;28;19912;-63
2021/05/04 10:11:12;;;;;;;;;;;;;;;;;;5053911;28;20479;-63
2021/05/04 10:13:37;;;;;;;;;;;;;;;;;;5053203;28;19909;-64
2021/05/04 10:16:02;;;;;;;;;;;;;;;;;;5053299;28;20443;-63
2021/05/04 10:18:27;;;;;;;;;;;;;;;;;;5052601;28;19909;-63
2021/05/04 10:20:52;;;;;;;;;;;;;;;;;;5055422;28;19921;-63
2021/05/04 10:23:17;;;;;;;;;;;;;;;;;;5053214;28;19954;-64
2021/05/04 10:25:42;;;;;;;;;;;;;;;;;;5050789;28;19913;-64
2021/05/04 10:28:07;;;;;;;;;;;;;;;;;;5035402;28;20365;-63
2021/05/04 10:30:33;;;;;;;;;;;;;;;;;;5052807;28;19909;-63
2021/05/04 10:33:01;;;;;;;;;;;;;;;;;;5052925;28;19915;-63
2021/05/04 10:35:26;;;;;;;;;;;;;;;;;;5053567;28;19959;-63
2021/05/04 10:37:51;;;;;;;;;;;;;;;;;;5054745;28;20001;-63
2021/05/04 10:40:16;;;;;;;;;;;;;;;;;;5053693;28;19908;-63
2021/05/04 10:42:44;;;;;;;;;;;;;;;;;;5053043;28;19912;-63
2021/05/04 10:45:09;;;;;;;;;;;;;;;;;;5053019;28;19916;-64
2021/05/04 10:47:34;;;;;;;;;;;;;;;;;;5053234;28;20423;-63
2021/05/04 10:50:00;;;;;;;;;;;;;;;;;;5052711;28;19915;-63
2021/05/04 10:52:25;;;;;;;;;;;;;;;;;;5066197;28;19908;-63
2021/05/04 10:54:50;;;;;;;;;;;;;;;;;;5056628;28;19915;-64
2021/05/04 10:57:16;;;;;;;;;;;;;;;;;;5053209;28;19909;-64
2021/05/04 10:59:41;;;;;;;;;;;;;;;;;;5052385;28;19959;-63
2021/05/04 11:02:06;;;;;;;;;;;;;;;;;;5053191;28;20296;-64
2021/05/04 11:04:31;;;;;;;;;;;;;;;;;;5052804;28;19917;-63
2021/05/04 11:06:56;;;;;;;;;;;;;;;;;;5052718;28;19909;-63
2021/05/04 11:09:21;;;;;;;;;;;;;;;;;;5053836;28;19920;-63
2021/05/04 11:11:47;;;;;;;;;;;;;;;;;;5052353;28;20301;-64
2021/05/04 11:14:12;;;;;;;;;;;;;;;;;;5051718;28;19918;-63
2021/05/04 11:16:41;;;;;;;;;;;;;;;;;;5051569;28;20034;-63
2021/05/04 11:19:06;;;;;;;;;;;;;;;;;;5051862;28;19908;-63
2021/05/04 11:21:31;;;;;;;;;;;;;;;;;;5052012;28;20376;-64
2021/05/04 11:23:56;;;;;;;;;;;;;;;;;;5061114;28;20001;-63
2021/05/04 11:26:21;;;;;;;;;;;;;;;;;;5052350;28;19912;-64
2021/05/04 11:28:46;;;;;;;;;;;;;;;;;;5052023;28;20008;-63
2021/05/04 11:31:11;;;;;;;;;;;;;;;;;;5052741;28;19905;-64
2021/05/04 11:33:37;;;;;;;;;;;;;;;;;;5052052;28;19915;-63
2021/05/04 11:36:02;;;;;;;;;;;;;;;;;;5052325;28;19923;-63
2021/05/04 11:38:27;;;;;;;;;;;;;;;;;;5051775;28;19923;-63
2021/05/04 11:40:52;;;;;;;;;;;;;;;;;;5056434;28;20353;-63
2021/05/04 11:43:17;;;;;;;;;;;;;;;;;;5051660;28;19912;-64
2021/05/04 11:45:42;;;;;;;;;;;;;;;;;;5052099;28;20365;-63
2021/05/04 11:48:07;;;;;;;;;;;;;;;;;;5051542;28;19924;-64
2021/05/04 11:50:33;;;;;;;;;;;;;;;;;;5051390;28;19909;-63
2021/05/04 11:52:58;;;;;;;;;;;;;;;;;;5050892;28;19909;-63
2021/05/04 11:55:23;;;;;;;;;;;;;;;;;;5051389;28;19909;-63
2021/05/04 11:57:48;;;;;;;;;;;;;;;;;;5050854;28;20246;-63
2021/05/04 12:00:13;;;;;;;;;;;;;;;;;;5050979;28;20415;-63
2021/05/04 12:02:39;;;;;;;;;;;;;;;;;;5050946;28;19913;-63
2021/05/04 12:05:04;;;;;;;;;;;;;;;;;;5051641;28;19957;-63
2021/05/04 12:07:29;;;;;;;;;;;;;;;;;;5051384;28;20369;-63
2021/05/04 12:09:54;;;;;;;;;;;;;;;;;;5050868;28;19934;-63
2021/05/04 12:12:19;;;;;;;;;;;;;;;;;;5050641;28;20288;-64
2021/05/04 12:14:44;;;;;;;;;;;;;;;;;;5034886;28;20388;-63
2021/05/04 12:17:09;;;;;;;;;;;;;;;;;;5051574;28;19936;-63
2021/05/04 12:19:34;;;;;;;;;;;;;;;;;;5051147;28;19959;-63
2021/05/04 12:21:59;;;;;;;;;;;;;;;;;;5051564;28;20376;-63
2021/05/04 12:24:24;;;;;;;;;;;;;;;;;;5050966;28;19913;-63
2021/05/04 12:26:51;;;;;;;;;;;;;;;;;;5049874;28;20019;-64
2021/05/04 12:29:17;;;;;;;;;;;;;;;;;;5050708;28;19912;-64
2021/05/04 12:31:42;;;;;;;;;;;;;;;;;;5051386;28;19909;-63
2021/05/04 12:34:07;;;;;;;;;;;;;;;;;;5050659;28;19951;-64
2021/05/04 12:36:32;;;;;;;;;;;;;;;;;;5050301;28;20365;-64
2021/05/04 12:38:59;;;;;;;;;;;;;;;;;;5050546;28;20011;-64
2021/05/04 12:41:25;;;;;;;;;;;;;;;;;;5050485;28;19909;-64
2021/05/04 12:43:50;;;;;;;;;;;;;;;;;;5050551;28;19924;-64
2021/05/04 12:46:17;;;;;;;;;;;;;;;;;;5049528;28;20066;-63
2021/05/04 12:48:42;;;;;;;;;;;;;;;;;;5045546;28;20011;-64
2021/05/04 12:51:07;;;;;;;;;;;;;;;;;;5046808;28;19995;-64
2021/05/04 12:53:34;;;;;;;;;;;;;;;;;;5050759;28;20276;-63
2021/05/04 12:55:59;;;;;;;;;;;;;;;;;;5049982;28;19924;-64
2021/05/04 12:58:24;;;;;;;;;;;;;;;;;;5050339;28;19909;-64
2021/05/04 13:00:49;;;;;;;;;;;;;;;;;;5049583;28;20329;-63
2021/05/04 13:03:19;;;;;;;;;;;;;;;;;;5050316;28;20396;-63
2021/05/04 13:05:44;;;;;;;;;;;;;;;;;;5050672;28;19970;-64
2021/05/04 13:08:10;;;;;;;;;;;;;;;;;;5047338;28;20365;-64
2021/05/04 13:10:47;;;;;;;;;;;;;;;;;;5050077;28;19939;-64
2021/05/04 13:32:20;;;;;;;;;;;;;;;;;;5050714;28;19916;-64
2021/05/04 13:34:55;;;;;;;;;;;;;;;;;;5032518;28;19909;-65
2021/05/04 13:37:39;;;;;;;;;;;;;;;;;;5051153;28;19904;-63
2021/05/04 13:47:51;;;;;;;;;;;;;;;;;;5054951;28;19912;-63
2021/05/04 13:50:19;;;;;;;;;;;;;;;;;;5054171;28;19909;-64
2021/05/04 13:52:44;;;;;;;;;;;;;;;;;;5051478;28;20286;-65
2021/05/04 13:55:09;;;;;;;;;;;;;;;;;;5054778;28;20282;-64
2021/05/04 13:57:35;;;;;;;;;;;;;;;;;;5054310;28;19970;-64
2021/05/04 14:00:01;;;;;;;;;;;;;;;;;;5054378;28;19928;-64
2021/05/04 14:07:50;;;;;;;;;;;;;;;;;;5105608;28;19939;-87
2021/05/04 14:26:33;;;;;;;;;;;;;;;;;;5093269;28;19961;-86
2021/05/04 14:29:00;;;;;;;;;;;;;;;;;;5086325;28;20346;-86
2021/05/04 14:31:25;;;;;;;;;;;;;;;;;;5092728;28;19970;-85
2021/05/04 14:33:50;;;;;;;;;;;;;;;;;;5087398;28;19916;-85
2021/05/04 14:41:46;;;;;;;;;;;;;;;;;;5095392;28;19915;-86
2021/05/04 15:02:50;;;;;;;;;;;;;;;;;;5088221;28;19908;-87
2021/05/04 15:05:16;;;;;;;;;;;;;;;;;;5091554;28;20287;-86
2021/05/04 15:07:41;;;;;;;;;;;;;;;;;;5085708;28;19918;-87
2021/05/04 15:10:06;;;;;;;;;;;;;;;;;;5087618;28;19995;-87
2021/05/04 15:12:32;;;;;;;;;;;;;;;;;;5090328;28;19911;-86
2021/05/04 15:14:59;;;;;;;;;;;;;;;;;;5088922;28;20423;-87
2021/05/04 15:17:40;;;;;;;;;;;;;;;;;;5092106;28;19944;-87
2021/05/04 15:22:51;;;;;;;;;;;;;;;;;;5091137;28;20382;-85
2021/05/04 15:25:16;;;;;;;;;;;;;;;;;;5089349;28;20368;-85
2021/05/04 15:27:42;;;;;;;;;;;;;;;;;;5084489;28;19991;-87
2021/05/04 15:30:07;;;;;;;;;;;;;;;;;;5089808;28;20003;-87
2021/05/04 15:32:42;;;;;;;;;;;;;;;;;;5089566;28;20302;-86
2021/05/04 15:35:07;;;;;;;;;;;;;;;;;;5083710;28;19909;-86
2021/05/04 15:37:34;;;;;;;;;;;;;;;;;;5089923;28;20571;-86
2021/05/04 15:39:59;;;;;;;;;;;;;;;;;;5090460;28;20284;-84
2021/05/04 15:42:24;;;;;;;;;;;;;;;;;;5090069;28;20291;-86
2021/05/04 15:44:56;;;;;;;;;;;;;;;;;;5089894;28;20410;-85
2021/05/04 15:47:26;;;;;;;;;;;;;;;;;;5091758;28;19908;-85
2021/05/04 15:49:57;;;;;;;;;;;;;;;;;;5090539;28;20003;-86
2021/05/04 15:52:37;;;;;;;;;;;;;;;;;;5090827;28;20248;-86
2021/05/04 16:08:31;;;;;;;;;;;;;;;;;;5088647;28;19970;-85
2021/05/04 16:10:56;;;;;;;;;;;;;;;;;;5100935;28;20322;-86
2021/05/04 16:13:21;;;;;;;;;;;;;;;;;;5083568;28;20252;-88
2021/05/04 16:15:46;;;;;;;;;;;;;;;;;;5089474;28;19908;-86
2021/05/04 16:18:12;;;;;;;;;;;;;;;;;;5088659;28;19919;-87
2021/05/04 16:23:37;;;;;;;;;;;;;;;;;;5090714;28;19911;-86
2021/05/04 16:31:25;;;;;;;;;;;;;;;;;;5090002;28;19936;-86
2021/05/04 16:33:50;;;;;;;;;;;;;;;;;;5091320;28;19943;-86
2021/05/04 16:36:15;;;;;;;;;;;;;;;;;;5088807;28;19908;-86
2021/05/04 16:38:40;;;;;;;;;;;;;;;;;;5087713;28;20286;-87
2021/05/04 16:41:05;;;;;;;;;;;;;;;;;;5088269;28;19912;-86
2021/05/04 16:43:30;;;;;;;;;;;;;;;;;;5085179;28;19916;-86
2021/05/04 16:46:09;;;;;;;;;;;;;;;;;;5083545;28;19915;-88
2021/05/04 16:48:39;;;;;;;;;;;;;;;;;;5077231;28;20590;-87
2021/05/04 16:51:04;;;;;;;;;;;;;;;;;;5081229;28;19933;-85
2021/05/04 16:53:29;;;;;;;;;;;;;;;;;;5089224;28;19935;-87
2021/05/04 16:55:54;;;;;;;;;;;;;;;;;;5087979;28;19969;-86
2021/05/04 16:58:20;;;;;;;;;;;;;;;;;;5084859;28;19912;-87
2021/05/04 17:00:47;;;;;;;;;;;;;;;;;;5082478;28;19909;-86
2021/05/04 17:03:12;;;;;;;;;;;;;;;;;;5087775;28;19915;-86
2021/05/04 17:05:39;;;;;;;;;;;;;;;;;;5081030;28;20390;-87
2021/05/04 17:10:45;;;;;;;14.98;1.85;;;;;;;;;;5044142;28;20457;-66
2021/05/04 17:13:10;;;;;;;16.90;2.03;;;;;;;;;;5046015;28;20340;-68
2021/05/04 17:15:35;;;;;;;8.25;1.48;;;;;;;;;;5036665;28;20029;-67
2021/05/04 17:18:00;;;;;;;6.85;1.58;;;;;;;;;;5045435;28;20021;-66
2021/05/04 17:20:26;;;;;;;15.40;2.42;;;;;;;;;;5042361;28;20468;-67
2021/05/04 17:22:51;;;;;;;11.30;1.95;;;;;;;;;;5030559;28;20468;-65
2021/05/04 17:25:22;;;;;;;7.88;1.45;;;;;;;;;;5065433;22;20413;-84
2021/05/04 17:27:47;;;;;;;10.48;2.65;;;;;;;;;;5028082;28;20144;-84
2021/05/04 17:30:13;;;;;;;14.70;1.60;;;;;;;;;;5027351;28;20103;-84
2021/05/04 17:32:38;;;;;;;10.38;2.00;;;;;;;;;;5030195;28;20037;-86
2021/05/04 17:35:03;;;;;;;9.32;1.73;;;;;;;;;;5030790;28;20028;-86
2021/05/04 17:37:29;;;;;;;9.93;1.58;;;;;;;;;;5039000;28;20024;-85
2021/05/04 17:39:58;;;;;;;5.97;1.27;;;;;;;;;;5039874;28;20021;-84
2021/05/04 17:42:25;;;;;;;8.63;1.65;;;;;;;;;;5038017;28;20033;-86
2021/05/04 17:44:53;;;;;;;7.60;1.63;;;;;;;;;;5032206;28;20022;-87
2021/05/04 17:47:19;;;;;;;10.70;1.58;;;;;;;;;;5045972;28;20530;-84
2021/05/04 17:49:44;;;;;;;5.03;1.45;;;;;;;;;;5028311;28;20024;-83
2021/05/04 17:52:09;;;;;;;7.50;2.00;;;;;;;;;;5025146;28;20025;-84
2021/05/04 17:54:34;;;;;;;5.32;1.80;;;;;;;;;;5044694;28;20283;-85
2021/05/04 17:57:00;;;;;;;8.07;1.35;;;;;;;;;;5016955;28;20036;-85
2021/05/04 17:59:25;;;;;;;6.72;1.55;;;;;;;;;;5025368;28;20044;-85
2021/05/04 18:01:51;;;;;;;11.85;1.60;;;;;;;;;;5027188;28;20058;-84
2021/05/04 18:04:16;;;;;;;3.63;1.40;;;;;;;;;;5045459;28;20116;-85
2021/05/04 18:06:42;;;;;;;4.57;1.15;;;;;;;;;;5036238;28;20481;-83
2021/05/04 18:09:08;;;;;;;4.80;1.38;;;;;;;;;;5036153;28;20021;-84